Terminal Aerodrome Forecast
Issued by NWS

Home | Current Version | Previous Version | Text Only | Print | Product List | Glossary On
Versions: 1 2 3 4 5 6 7 8 9 10 11 12 13 14 15 16 17 18
000
FTUS46 KEKA 281125
TAFCEC
TAF
KCEC 281125Z 2812/2912 36006KT P6SM SKC
     FM281700 34019G29KT P6SM SKC
     FM290300 01010G20KT P6SM SKC
     FM290700 05009KT P6SM SKC=

USA.gov is the U.S. government's official web portal to all federal, state and local government web resources and services.